sensor_id;sensor_type;location;lat;lon;timestamp;P1;durP1;ratioP1;P2;durP2;ratioP2
16600;SDS011;34891;48.164;11.572;2023-07-08T00:04:57;12.65;;;3.92;;
16600;SDS011;34891;48.164;11.572;2023-07-08T00:10:01;7.80;;;3.85;;
16600;SDS011;34891;48.164;11.572;2023-07-08T00:15:09;10.43;;;4.32;;
16600;SDS011;34891;48.164;11.572;2023-07-08T00:20:17;8.55;;;3.67;;
16600;SDS011;34891;48.164;11.572;2023-07-08T00:25:23;9.43;;;4.47;;
16600;SDS011;34891;48.164;11.572;2023-07-08T00:30:38;10.48;;;4.25;;
16600;SDS011;34891;48.164;11.572;2023-07-08T00:35:51;13.27;;;4.13;;
16600;SDS011;34891;48.164;11.572;2023-07-08T00:40:59;7.60;;;3.83;;
16600;SDS011;34891;48.164;11.572;2023-07-08T00:46:13;9.77;;;5.15;;
16600;SDS011;34891;48.164;11.572;2023-07-08T00:51:29;9.90;;;4.28;;
16600;SDS011;34891;48.164;11.572;2023-07-08T00:56:45;8.23;;;3.33;;
16600;SDS011;34891;48.164;11.572;2023-07-08T01:02:01;8.85;;;4.00;;
16600;SDS011;34891;48.164;11.572;2023-07-08T01:07:12;7.75;;;3.92;;
16600;SDS011;34891;48.164;11.572;2023-07-08T01:12:25;10.25;;;4.03;;
16600;SDS011;34891;48.164;11.572;2023-07-08T01:17:32;10.25;;;3.95;;
16600;SDS011;34891;48.164;11.572;2023-07-08T01:22:41;8.70;;;4.10;;
16600;SDS011;34891;48.164;11.572;2023-07-08T01:27:54;8.43;;;3.80;;
16600;SDS011;34891;48.164;11.572;2023-07-08T01:33:13;9.55;;;4.13;;
16600;SDS011;34891;48.164;11.572;2023-07-08T01:38:25;11.32;;;4.60;;
16600;SDS011;34891;48.164;11.572;2023-07-08T01:43:38;8.43;;;3.80;;
16600;SDS011;34891;48.164;11.572;2023-07-08T01:48:49;11.13;;;4.80;;
16600;SDS011;34891;48.164;11.572;2023-07-08T01:54:02;8.52;;;3.97;;
16600;SDS011;34891;48.164;11.572;2023-07-08T01:59:09;10.02;;;4.55;;
16600;SDS011;34891;48.164;11.572;2023-07-08T02:04:16;8.05;;;4.20;;
16600;SDS011;34891;48.164;11.572;2023-07-08T02:09:24;9.45;;;4.28;;
16600;SDS011;34891;48.164;11.572;2023-07-08T02:14:33;10.20;;;4.40;;
16600;SDS011;34891;48.164;11.572;2023-07-08T02:19:37;14.07;;;4.72;;
16600;SDS011;34891;48.164;11.572;2023-07-08T02:24:56;10.05;;;4.50;;
16600;SDS011;34891;48.164;11.572;2023-07-08T02:30:02;11.23;;;4.22;;
16600;SDS011;34891;48.164;11.572;2023-07-08T02:35:14;9.75;;;4.13;;
16600;SDS011;34891;48.164;11.572;2023-07-08T02:40:19;13.10;;;4.45;;
16600;SDS011;34891;48.164;11.572;2023-07-08T02:45:23;12.07;;;4.68;;
16600;SDS011;34891;48.164;11.572;2023-07-08T02:50:32;10.18;;;4.53;;
16600;SDS011;34891;48.164;11.572;2023-07-08T02:55:49;9.57;;;4.55;;
16600;SDS011;34891;48.164;11.572;2023-07-08T03:01:07;10.10;;;4.40;;
16600;SDS011;34891;48.164;11.572;2023-07-08T03:11:48;11.45;;;4.88;;
16600;SDS011;34891;48.164;11.572;2023-07-08T03:16:54;12.73;;;5.57;;
16600;SDS011;34891;48.164;11.572;2023-07-08T03:21:58;10.70;;;4.75;;
16600;SDS011;34891;48.164;11.572;2023-07-08T03:27:23;8.70;;;4.20;;
16600;SDS011;34891;48.164;11.572;2023-07-08T03:32:35;9.30;;;4.53;;
16600;SDS011;34891;48.164;11.572;2023-07-08T03:37:43;10.35;;;4.28;;
16600;SDS011;34891;48.164;11.572;2023-07-08T03:42:50;10.15;;;4.10;;
16600;SDS011;34891;48.164;11.572;2023-07-08T03:48:02;9.38;;;4.63;;
16600;SDS011;34891;48.164;11.572;2023-07-08T03:53:11;8.65;;;4.13;;
16600;SDS011;34891;48.164;11.572;2023-07-08T03:58:37;9.98;;;4.43;;
16600;SDS011;34891;48.164;11.572;2023-07-08T04:04:02;11.45;;;4.28;;
16600;SDS011;34891;48.164;11.572;2023-07-08T04:09:12;11.18;;;4.22;;
16600;SDS011;34891;48.164;11.572;2023-07-08T04:14:34;9.57;;;4.50;;
16600;SDS011;34891;48.164;11.572;2023-07-08T04:19:45;7.53;;;3.95;;
16600;SDS011;34891;48.164;11.572;2023-07-08T04:25:08;9.05;;;4.13;;
16600;SDS011;34891;48.164;11.572;2023-07-08T04:30:20;9.52;;;3.78;;
16600;SDS011;34891;48.164;11.572;2023-07-08T04:35:27;11.27;;;4.57;;
16600;SDS011;34891;48.164;11.572;2023-07-08T04:40:38;11.73;;;4.90;;
16600;SDS011;34891;48.164;11.572;2023-07-08T04:45:49;12.02;;;4.25;;
16600;SDS011;34891;48.164;11.572;2023-07-08T04:51:24;13.18;;;4.90;;
16600;SDS011;34891;48.164;11.572;2023-07-08T05:01:43;11.40;;;4.55;;
16600;SDS011;34891;48.164;11.572;2023-07-08T05:06:51;10.02;;;4.20;;
16600;SDS011;34891;48.164;11.572;2023-07-08T05:12:04;11.67;;;4.50;;
16600;SDS011;34891;48.164;11.572;2023-07-08T05:17:12;10.73;;;4.90;;
16600;SDS011;34891;48.164;11.572;2023-07-08T05:22:21;9.90;;;4.88;;
16600;SDS011;34891;48.164;11.572;2023-07-08T05:27:33;10.10;;;4.70;;
16600;SDS011;34891;48.164;11.572;2023-07-08T05:32:45;12.27;;;5.38;;
16600;SDS011;34891;48.164;11.572;2023-07-08T05:37:57;12.73;;;5.47;;
16600;SDS011;34891;48.164;11.572;2023-07-08T05:43:11;10.80;;;5.00;;
16600;SDS011;34891;48.164;11.572;2023-07-08T05:48:37;11.15;;;4.65;;
16600;SDS011;34891;48.164;11.572;2023-07-08T05:53:45;10.18;;;4.60;;
16600;SDS011;34891;48.164;11.572;2023-07-08T05:58:51;9.20;;;4.70;;
16600;SDS011;34891;48.164;11.572;2023-07-08T06:04:11;11.88;;;5.80;;
16600;SDS011;34891;48.164;11.572;2023-07-08T06:09:40;11.73;;;5.53;;
16600;SDS011;34891;48.164;11.572;2023-07-08T06:14:52;12.23;;;4.88;;
16600;SDS011;34891;48.164;11.572;2023-07-08T06:25:46;11.98;;;5.20;;
16600;SDS011;34891;48.164;11.572;2023-07-08T06:30:54;12.05;;;5.25;;
16600;SDS011;34891;48.164;11.572;2023-07-08T06:35:59;11.77;;;5.00;;
16600;SDS011;34891;48.164;11.572;2023-07-08T06:41:11;11.32;;;4.97;;
16600;SDS011;34891;48.164;11.572;2023-07-08T06:46:26;10.88;;;5.18;;
16600;SDS011;34891;48.164;11.572;2023-07-08T06:51:38;12.18;;;5.30;;
16600;SDS011;34891;48.164;11.572;2023-07-08T06:56:50;10.20;;;4.93;;
16600;SDS011;34891;48.164;11.572;2023-07-08T07:01:57;14.70;;;5.40;;
16600;SDS011;34891;48.164;11.572;2023-07-08T07:07:02;11.13;;;4.88;;
16600;SDS011;34891;48.164;11.572;2023-07-08T07:12:13;12.50;;;5.28;;
16600;SDS011;34891;48.164;11.572;2023-07-08T07:17:17;9.10;;;4.68;;
16600;SDS011;34891;48.164;11.572;2023-07-08T07:22:26;12.07;;;5.78;;
16600;SDS011;34891;48.164;11.572;2023-07-08T07:27:43;14.38;;;5.68;;
16600;SDS011;34891;48.164;11.572;2023-07-08T07:32:47;16.38;;;6.82;;
16600;SDS011;34891;48.164;11.572;2023-07-08T07:37:58;15.48;;;5.95;;
16600;SDS011;34891;48.164;11.572;2023-07-08T07:43:08;12.77;;;5.53;;
16600;SDS011;34891;48.164;11.572;2023-07-08T07:48:14;16.67;;;7.65;;
16600;SDS011;34891;48.164;11.572;2023-07-08T07:53:21;12.95;;;6.03;;
16600;SDS011;34891;48.164;11.572;2023-07-08T07:58:33;18.48;;;7.07;;
16600;SDS011;34891;48.164;11.572;2023-07-08T08:03:39;13.93;;;6.50;;
16600;SDS011;34891;48.164;11.572;2023-07-08T08:08:43;16.33;;;6.30;;
16600;SDS011;34891;48.164;11.572;2023-07-08T08:13:51;11.55;;;6.10;;
16600;SDS011;34891;48.164;11.572;2023-07-08T08:18:58;10.73;;;5.50;;
16600;SDS011;34891;48.164;11.572;2023-07-08T08:24:10;13.27;;;6.07;;
16600;SDS011;34891;48.164;11.572;2023-07-08T08:29:22;13.30;;;6.20;;
16600;SDS011;34891;48.164;11.572;2023-07-08T08:34:37;8.05;;;4.28;;
16600;SDS011;34891;48.164;11.572;2023-07-08T08:39:43;13.82;;;6.05;;
16600;SDS011;34891;48.164;11.572;2023-07-08T08:45:13;13.00;;;6.10;;
16600;SDS011;34891;48.164;11.572;2023-07-08T08:56:45;12.45;;;5.80;;
16600;SDS011;34891;48.164;11.572;2023-07-08T09:08:29;12.13;;;5.57;;
16600;SDS011;34891;48.164;11.572;2023-07-08T09:13:34;13.43;;;6.55;;
16600;SDS011;34891;48.164;11.572;2023-07-08T09:18:49;13.15;;;6.63;;
16600;SDS011;34891;48.164;11.572;2023-07-08T09:24:17;12.77;;;6.38;;
16600;SDS011;34891;48.164;11.572;2023-07-08T09:29:30;12.48;;;6.07;;
16600;SDS011;34891;48.164;11.572;2023-07-08T09:34:37;17.20;;;6.15;;
16600;SDS011;34891;48.164;11.572;2023-07-08T09:39:53;9.48;;;5.57;;
16600;SDS011;34891;48.164;11.572;2023-07-08T09:45:10;9.80;;;5.70;;
16600;SDS011;34891;48.164;11.572;2023-07-08T09:50:19;12.57;;;6.60;;
16600;SDS011;34891;48.164;11.572;2023-07-08T09:55:31;12.35;;;5.70;;
16600;SDS011;34891;48.164;11.572;2023-07-08T10:05:46;13.40;;;6.28;;
16600;SDS011;34891;48.164;11.572;2023-07-08T10:11:02;14.10;;;5.72;;
16600;SDS011;34891;48.164;11.572;2023-07-08T10:16:24;10.20;;;6.43;;
16600;SDS011;34891;48.164;11.572;2023-07-08T10:21:35;12.77;;;6.30;;
16600;SDS011;34891;48.164;11.572;2023-07-08T10:26:44;10.50;;;6.38;;
16600;SDS011;34891;48.164;11.572;2023-07-08T10:32:18;12.57;;;6.22;;
16600;SDS011;34891;48.164;11.572;2023-07-08T10:37:25;9.80;;;6.32;;
16600;SDS011;34891;48.164;11.572;2023-07-08T10:42:34;9.80;;;5.70;;
16600;SDS011;34891;48.164;11.572;2023-07-08T10:47:49;7.95;;;5.63;;
16600;SDS011;34891;48.164;11.572;2023-07-08T10:52:57;9.27;;;5.53;;
16600;SDS011;34891;48.164;11.572;2023-07-08T10:58:08;9.00;;;6.07;;
16600;SDS011;34891;48.164;11.572;2023-07-08T11:03:31;9.60;;;6.20;;
16600;SDS011;34891;48.164;11.572;2023-07-08T11:08:41;8.48;;;6.22;;
16600;SDS011;34891;48.164;11.572;2023-07-08T11:13:45;8.23;;;6.00;;
16600;SDS011;34891;48.164;11.572;2023-07-08T11:18:52;7.85;;;6.05;;
16600;SDS011;34891;48.164;11.572;2023-07-08T11:23:56;10.23;;;7.55;;
16600;SDS011;34891;48.164;11.572;2023-07-08T11:29:02;8.75;;;6.13;;
16600;SDS011;34891;48.164;11.572;2023-07-08T11:34:07;8.63;;;6.35;;
16600;SDS011;34891;48.164;11.572;2023-07-08T11:39:27;8.52;;;6.03;;
16600;SDS011;34891;48.164;11.572;2023-07-08T11:44:33;9.45;;;6.50;;
16600;SDS011;34891;48.164;11.572;2023-07-08T11:49:40;9.02;;;6.47;;
16600;SDS011;34891;48.164;11.572;2023-07-08T11:54:45;8.48;;;5.97;;
16600;SDS011;34891;48.164;11.572;2023-07-08T12:00:05;9.90;;;6.20;;
16600;SDS011;34891;48.164;11.572;2023-07-08T12:05:12;8.32;;;5.68;;
16600;SDS011;34891;48.164;11.572;2023-07-08T12:10:16;8.47;;;5.50;;
16600;SDS011;34891;48.164;11.572;2023-07-08T12:15:20;11.20;;;5.70;;
16600;SDS011;34891;48.164;11.572;2023-07-08T12:20:27;10.15;;;5.47;;
16600;SDS011;34891;48.164;11.572;2023-07-08T12:25:31;10.95;;;7.35;;
16600;SDS011;34891;48.164;11.572;2023-07-08T12:30:36;9.30;;;5.00;;
16600;SDS011;34891;48.164;11.572;2023-07-08T12:35:41;9.82;;;5.55;;
16600;SDS011;34891;48.164;11.572;2023-07-08T12:40:44;9.00;;;5.53;;
16600;SDS011;34891;48.164;11.572;2023-07-08T12:45:47;11.25;;;5.30;;
16600;SDS011;34891;48.164;11.572;2023-07-08T12:50:51;9.77;;;5.50;;
16600;SDS011;34891;48.164;11.572;2023-07-08T12:55:55;9.95;;;5.15;;
16600;SDS011;34891;48.164;11.572;2023-07-08T13:01:01;10.40;;;4.82;;
16600;SDS011;34891;48.164;11.572;2023-07-08T13:06:07;9.15;;;4.97;;
16600;SDS011;34891;48.164;11.572;2023-07-08T13:11:12;8.35;;;5.00;;
16600;SDS011;34891;48.164;11.572;2023-07-08T13:16:16;10.32;;;4.95;;
16600;SDS011;34891;48.164;11.572;2023-07-08T13:21:20;7.97;;;4.40;;
16600;SDS011;34891;48.164;11.572;2023-07-08T13:26:27;11.10;;;4.70;;
16600;SDS011;34891;48.164;11.572;2023-07-08T13:31:33;9.93;;;5.40;;
16600;SDS011;34891;48.164;11.572;2023-07-08T13:36:39;8.65;;;4.65;;
16600;SDS011;34891;48.164;11.572;2023-07-08T13:41:43;9.05;;;4.68;;
16600;SDS011;34891;48.164;11.572;2023-07-08T13:46:50;9.38;;;5.28;;
16600;SDS011;34891;48.164;11.572;2023-07-08T13:52:05;10.80;;;5.20;;
16600;SDS011;34891;48.164;11.572;2023-07-08T13:57:09;12.05;;;5.10;;
16600;SDS011;34891;48.164;11.572;2023-07-08T14:02:16;9.65;;;4.82;;
16600;SDS011;34891;48.164;11.572;2023-07-08T14:07:21;9.15;;;4.07;;
16600;SDS011;34891;48.164;11.572;2023-07-08T14:12:24;9.00;;;4.70;;
16600;SDS011;34891;48.164;11.572;2023-07-08T14:17:27;10.18;;;4.63;;
16600;SDS011;34891;48.164;11.572;2023-07-08T14:22:32;9.77;;;4.68;;
16600;SDS011;34891;48.164;11.572;2023-07-08T14:27:34;9.63;;;5.35;;
16600;SDS011;34891;48.164;11.572;2023-07-08T14:32:38;9.95;;;5.07;;
16600;SDS011;34891;48.164;11.572;2023-07-08T14:37:42;9.90;;;4.38;;
16600;SDS011;34891;48.164;11.572;2023-07-08T14:42:45;8.65;;;4.65;;
16600;SDS011;34891;48.164;11.572;2023-07-08T14:47:51;8.20;;;3.95;;
16600;SDS011;34891;48.164;11.572;2023-07-08T14:52:57;7.28;;;3.80;;
16600;SDS011;34891;48.164;11.572;2023-07-08T14:58:00;10.40;;;4.45;;
16600;SDS011;34891;48.164;11.572;2023-07-08T15:03:04;9.15;;;3.78;;
16600;SDS011;34891;48.164;11.572;2023-07-08T15:08:08;9.95;;;4.05;;
16600;SDS011;34891;48.164;11.572;2023-07-08T15:13:11;11.65;;;4.13;;
16600;SDS011;34891;48.164;11.572;2023-07-08T15:18:15;7.50;;;4.20;;
16600;SDS011;34891;48.164;11.572;2023-07-08T15:23:20;8.48;;;3.78;;
16600;SDS011;34891;48.164;11.572;2023-07-08T15:28:31;7.68;;;3.35;;
16600;SDS011;34891;48.164;11.572;2023-07-08T15:33:37;7.28;;;3.40;;
16600;SDS011;34891;48.164;11.572;2023-07-08T15:38:41;7.15;;;3.55;;
16600;SDS011;34891;48.164;11.572;2023-07-08T15:43:44;7.80;;;2.85;;
16600;SDS011;34891;48.164;11.572;2023-07-08T15:48:47;8.27;;;2.83;;
16600;SDS011;34891;48.164;11.572;2023-07-08T15:53:52;6.25;;;2.70;;
16600;SDS011;34891;48.164;11.572;2023-07-08T15:58:55;6.32;;;3.25;;
16600;SDS011;34891;48.164;11.572;2023-07-08T16:03:57;8.63;;;3.20;;
16600;SDS011;34891;48.164;11.572;2023-07-08T16:09:02;6.03;;;2.60;;
16600;SDS011;34891;48.164;11.572;2023-07-08T16:14:07;7.97;;;4.07;;
16600;SDS011;34891;48.164;11.572;2023-07-08T16:19:13;7.88;;;3.35;;
16600;SDS011;34891;48.164;11.572;2023-07-08T16:24:35;10.27;;;3.17;;
16600;SDS011;34891;48.164;11.572;2023-07-08T16:29:37;10.90;;;3.72;;
16600;SDS011;34891;48.164;11.572;2023-07-08T16:34:41;9.18;;;3.58;;
16600;SDS011;34891;48.164;11.572;2023-07-08T16:39:46;8.95;;;3.08;;
16600;SDS011;34891;48.164;11.572;2023-07-08T16:44:49;8.45;;;3.47;;
16600;SDS011;34891;48.164;11.572;2023-07-08T16:49:51;10.13;;;3.30;;
16600;SDS011;34891;48.164;11.572;2023-07-08T16:54:56;8.07;;;3.45;;
16600;SDS011;34891;48.164;11.572;2023-07-08T16:59:58;7.03;;;3.15;;
16600;SDS011;34891;48.164;11.572;2023-07-08T17:05:01;7.28;;;3.20;;
16600;SDS011;34891;48.164;11.572;2023-07-08T17:10:09;7.93;;;3.40;;
16600;SDS011;34891;48.164;11.572;2023-07-08T17:15:13;9.63;;;3.45;;
16600;SDS011;34891;48.164;11.572;2023-07-08T17:20:17;10.77;;;4.43;;
16600;SDS011;34891;48.164;11.572;2023-07-08T17:25:22;9.45;;;3.47;;
16600;SDS011;34891;48.164;11.572;2023-07-08T17:30:26;9.25;;;3.70;;
16600;SDS011;34891;48.164;11.572;2023-07-08T17:35:29;11.50;;;3.60;;
16600;SDS011;34891;48.164;11.572;2023-07-08T17:40:33;9.40;;;3.45;;
16600;SDS011;34891;48.164;11.572;2023-07-08T17:45:39;8.45;;;3.47;;
16600;SDS011;34891;48.164;11.572;2023-07-08T17:50:42;10.43;;;4.72;;
16600;SDS011;34891;48.164;11.572;2023-07-08T17:55:46;6.22;;;3.13;;
16600;SDS011;34891;48.164;11.572;2023-07-08T18:00:51;8.00;;;3.15;;
16600;SDS011;34891;48.164;11.572;2023-07-08T18:05:54;9.25;;;3.42;;
16600;SDS011;34891;48.164;11.572;2023-07-08T18:10:58;11.05;;;4.13;;
16600;SDS011;34891;48.164;11.572;2023-07-08T18:16:01;9.68;;;3.33;;
16600;SDS011;34891;48.164;11.572;2023-07-08T18:21:07;7.53;;;3.83;;
16600;SDS011;34891;48.164;11.572;2023-07-08T18:26:15;8.70;;;3.63;;
16600;SDS011;34891;48.164;11.572;2023-07-08T18:31:21;8.50;;;4.22;;
16600;SDS011;34891;48.164;11.572;2023-07-08T18:36:24;12.40;;;4.28;;
16600;SDS011;34891;48.164;11.572;2023-07-08T18:41:30;9.77;;;3.75;;
16600;SDS011;34891;48.164;11.572;2023-07-08T18:46:36;10.45;;;4.25;;
16600;SDS011;34891;48.164;11.572;2023-07-08T18:56:42;10.90;;;3.63;;
16600;SDS011;34891;48.164;11.572;2023-07-08T19:01:46;8.95;;;4.28;;
16600;SDS011;34891;48.164;11.572;2023-07-08T19:06:52;10.98;;;4.72;;
16600;SDS011;34891;48.164;11.572;2023-07-08T19:11:56;13.23;;;5.32;;
16600;SDS011;34891;48.164;11.572;2023-07-08T19:16:59;13.88;;;5.55;;
16600;SDS011;34891;48.164;11.572;2023-07-08T19:22:03;10.93;;;4.53;;
16600;SDS011;34891;48.164;11.572;2023-07-08T19:27:11;11.65;;;4.57;;
16600;SDS011;34891;48.164;11.572;2023-07-08T19:32:16;13.02;;;5.28;;
16600;SDS011;34891;48.164;11.572;2023-07-08T19:37:20;13.02;;;5.60;;
16600;SDS011;34891;48.164;11.572;2023-07-08T19:42:26;20.75;;;6.68;;
16600;SDS011;34891;48.164;11.572;2023-07-08T19:47:29;13.00;;;5.65;;
16600;SDS011;34891;48.164;11.572;2023-07-08T19:52:32;16.45;;;5.53;;
16600;SDS011;34891;48.164;11.572;2023-07-08T20:02:39;13.33;;;4.83;;
16600;SDS011;34891;48.164;11.572;2023-07-08T20:07:43;15.00;;;5.90;;
16600;SDS011;34891;48.164;11.572;2023-07-08T20:12:45;12.77;;;5.30;;
16600;SDS011;34891;48.164;11.572;2023-07-08T20:17:50;15.10;;;6.20;;
16600;SDS011;34891;48.164;11.572;2023-07-08T20:22:53;16.70;;;5.28;;
16600;SDS011;34891;48.164;11.572;2023-07-08T20:27:56;13.40;;;6.20;;
16600;SDS011;34891;48.164;11.572;2023-07-08T20:33:00;16.48;;;7.13;;
16600;SDS011;34891;48.164;11.572;2023-07-08T20:38:03;16.48;;;6.15;;
16600;SDS011;34891;48.164;11.572;2023-07-08T20:48:12;18.23;;;6.47;;
16600;SDS011;34891;48.164;11.572;2023-07-08T20:53:18;20.95;;;10.63;;
16600;SDS011;34891;48.164;11.572;2023-07-08T20:58:22;15.18;;;7.18;;
16600;SDS011;34891;48.164;11.572;2023-07-08T21:03:26;17.75;;;7.85;;
16600;SDS011;34891;48.164;11.572;2023-07-08T21:08:32;12.45;;;6.68;;
16600;SDS011;34891;48.164;11.572;2023-07-08T21:13:36;13.65;;;5.93;;
16600;SDS011;34891;48.164;11.572;2023-07-08T21:18:41;16.50;;;6.22;;
16600;SDS011;34891;48.164;11.572;2023-07-08T21:23:44;17.83;;;6.32;;
16600;SDS011;34891;48.164;11.572;2023-07-08T21:28:50;10.15;;;4.05;;
16600;SDS011;34891;48.164;11.572;2023-07-08T21:33:55;12.18;;;4.85;;
16600;SDS011;34891;48.164;11.572;2023-07-08T21:38:58;13.82;;;5.18;;
16600;SDS011;34891;48.164;11.572;2023-07-08T21:44:02;11.15;;;4.43;;
16600;SDS011;34891;48.164;11.572;2023-07-08T21:49:06;14.30;;;6.38;;
16600;SDS011;34891;48.164;11.572;2023-07-08T21:54:10;10.57;;;6.05;;
16600;SDS011;34891;48.164;11.572;2023-07-08T21:59:14;11.43;;;5.22;;
16600;SDS011;34891;48.164;11.572;2023-07-08T22:04:19;10.82;;;5.00;;
16600;SDS011;34891;48.164;11.572;2023-07-08T22:09:23;13.93;;;5.30;;
16600;SDS011;34891;48.164;11.572;2023-07-08T22:14:26;12.00;;;4.88;;
16600;SDS011;34891;48.164;11.572;2023-07-08T22:19:31;11.15;;;5.90;;
16600;SDS011;34891;48.164;11.572;2023-07-08T22:24:34;13.27;;;6.15;;
16600;SDS011;34891;48.164;11.572;2023-07-08T22:29:37;10.90;;;5.25;;
16600;SDS011;34891;48.164;11.572;2023-07-08T22:34:41;12.95;;;5.05;;
16600;SDS011;34891;48.164;11.572;2023-07-08T22:39:45;11.50;;;5.28;;
16600;SDS011;34891;48.164;11.572;2023-07-08T22:44:48;14.10;;;5.22;;
16600;SDS011;34891;48.164;11.572;2023-07-08T22:49:52;12.50;;;5.00;;
16600;SDS011;34891;48.164;11.572;2023-07-08T22:54:55;13.55;;;5.05;;
16600;SDS011;34891;48.164;11.572;2023-07-08T22:59:59;14.77;;;5.03;;
16600;SDS011;34891;48.164;11.572;2023-07-08T23:05:03;10.90;;;5.80;;
16600;SDS011;34891;48.164;11.572;2023-07-08T23:10:09;13.45;;;5.43;;
16600;SDS011;34891;48.164;11.572;2023-07-08T23:15:13;10.20;;;4.93;;
16600;SDS011;34891;48.164;11.572;2023-07-08T23:20:17;12.93;;;5.63;;
16600;SDS011;34891;48.164;11.572;2023-07-08T23:25:20;13.60;;;5.80;;
16600;SDS011;34891;48.164;11.572;2023-07-08T23:30:23;13.23;;;6.25;;
16600;SDS011;34891;48.164;11.572;2023-07-08T23:35:27;13.23;;;5.53;;
16600;SDS011;34891;48.164;11.572;2023-07-08T23:40:30;12.40;;;6.18;;
16600;SDS011;34891;48.164;11.572;2023-07-08T23:45:33;12.57;;;6.28;;
16600;SDS011;34891;48.164;11.572;2023-07-08T23:50:39;14.15;;;6.40;;
16600;SDS011;34891;48.164;11.572;2023-07-08T23:55:44;14.75;;;6.28;;
